createdAt,value
2022-10-23T00:02:19.913Z,10.30
2022-10-23T00:04:53.092Z,8.75
2022-10-23T00:07:23.200Z,9.30
2022-10-23T00:09:53.542Z,8.55
2022-10-23T00:12:23.615Z,10.95
2022-10-23T00:14:53.661Z,11.43
2022-10-23T00:17:23.677Z,9.77
2022-10-23T00:19:53.708Z,10.88
2022-10-23T00:22:23.766Z,11.20
2022-10-23T00:24:55.530Z,11.25
2022-10-23T00:27:25.573Z,9.07
2022-10-23T00:29:55.763Z,10.98
2022-10-23T00:32:26.214Z,8.77
2022-10-23T00:34:56.326Z,10.68
2022-10-23T00:37:26.588Z,9.48
2022-10-23T00:39:57.364Z,10.98
2022-10-23T00:42:27.549Z,8.80
2022-10-23T00:44:57.618Z,14.07
2022-10-23T00:47:27.711Z,17.60
2022-10-23T00:49:57.849Z,8.35
2022-10-23T00:52:28.077Z,8.70
2022-10-23T00:54:58.095Z,8.05
2022-10-23T00:59:59.140Z,14.63
2022-10-23T01:02:29.322Z,10.82
2022-10-23T01:04:59.423Z,14.00
2022-10-23T01:07:35.098Z,11.27
2022-10-23T01:10:15.491Z,9.75
2022-10-23T01:12:58.028Z,10.48
2022-10-23T01:15:36.968Z,10.75
2022-10-23T01:18:19.558Z,8.82
2022-10-23T01:21:07.728Z,11.98
2022-10-23T01:24:11.540Z,11.63
2022-10-23T01:26:56.006Z,9.25
2022-10-23T01:29:26.023Z,10.68
2022-10-23T01:32:21.871Z,12.15
2022-10-23T01:35:00.687Z,8.57
2022-10-23T01:37:41.847Z,9.05
2022-10-23T01:40:34.765Z,12.40
2022-10-23T01:43:19.964Z,8.75
2022-10-23T01:46:01.937Z,9.73
2022-10-23T01:48:32.652Z,12.27
2022-10-23T01:51:03.809Z,16.67
2022-10-23T01:53:36.671Z,18.65
2022-10-23T01:56:11.015Z,16.02
2022-10-23T01:58:44.155Z,18.40
2022-10-23T02:01:14.269Z,19.57
2022-10-23T02:03:51.199Z,14.73
2022-10-23T02:09:16.950Z,11.75
2022-10-23T02:11:55.872Z,11.52
2022-10-23T02:14:52.170Z,9.68
2022-10-23T02:18:04.273Z,10.15
2022-10-23T02:23:22.937Z,9.02
2022-10-23T02:25:56.309Z,10.02
2022-10-23T02:28:33.263Z,11.60
2022-10-23T02:31:04.891Z,9.57
2022-10-23T02:33:35.996Z,9.23
2022-10-23T02:36:06.508Z,11.10
2022-10-23T02:38:44.447Z,8.60
2022-10-23T02:41:51.648Z,10.80
2022-10-23T02:44:31.492Z,10.65
2022-10-23T02:47:09.077Z,9.70
2022-10-23T02:49:41.267Z,13.88
2022-10-23T02:52:18.619Z,8.57
2022-10-23T02:55:06.945Z,7.85
2022-10-23T02:58:35.897Z,7.82
2022-10-23T03:01:12.451Z,8.27
2022-10-23T03:03:52.164Z,9.20
2022-10-23T03:06:22.361Z,12.73
2022-10-23T03:09:07.421Z,10.48
2022-10-23T03:11:37.638Z,8.80
2022-10-23T03:14:07.709Z,8.20
2022-10-23T03:16:37.753Z,11.60
2022-10-23T03:19:07.886Z,9.00
2022-10-23T03:21:38.233Z,10.13
2022-10-23T03:24:11.103Z,10.65
2022-10-23T03:26:45.116Z,10.45
2022-10-23T03:29:15.354Z,9.65
2022-10-23T03:31:48.203Z,7.85
2022-10-23T03:34:18.613Z,8.93
2022-10-23T03:36:48.721Z,9.05
2022-10-23T03:39:19.002Z,9.98
2022-10-23T03:41:50.027Z,8.30
2022-10-23T03:44:20.588Z,10.40
2022-10-23T03:46:51.103Z,10.63
2022-10-23T03:49:21.276Z,9.00
2022-10-23T03:51:53.999Z,8.88
2022-10-23T03:54:25.818Z,7.90
2022-10-23T03:56:57.579Z,6.63
2022-10-23T03:59:29.538Z,7.45
2022-10-23T04:02:01.650Z,13.43
2022-10-23T04:04:32.064Z,35.25
2022-10-23T04:07:02.840Z,28.17
2022-10-23T04:09:33.020Z,34.67
2022-10-23T04:12:03.023Z,36.00
2022-10-23T04:14:33.616Z,28.35
2022-10-23T04:17:04.455Z,34.63
2022-10-23T04:19:34.505Z,25.20
2022-10-23T04:22:04.585Z,27.00
2022-10-23T04:24:36.875Z,21.95
2022-10-23T04:27:06.902Z,23.23
2022-10-23T04:29:36.928Z,21.08
2022-10-23T04:32:08.370Z,22.55
2022-10-23T04:34:38.528Z,27.85
2022-10-23T04:37:08.889Z,19.67
2022-10-23T04:39:38.965Z,17.35
2022-10-23T04:42:09.025Z,20.08
2022-10-23T04:44:39.070Z,19.13
2022-10-23T04:47:09.039Z,15.25
2022-10-23T04:49:48.848Z,14.77
2022-10-23T04:52:38.577Z,16.20
2022-10-23T04:55:27.197Z,23.60
2022-10-23T04:58:20.282Z,17.75
2022-10-23T05:00:50.535Z,13.45
2022-10-23T05:03:26.791Z,18.33
2022-10-23T05:05:57.790Z,14.60
2022-10-23T05:08:47.919Z,14.52
2022-10-23T05:11:26.839Z,22.65
2022-10-23T05:13:57.531Z,21.25
2022-10-23T05:16:57.390Z,19.03
2022-10-23T05:19:33.889Z,15.02
2022-10-23T05:22:03.957Z,14.70
2022-10-23T05:24:50.555Z,15.25
2022-10-23T05:27:24.974Z,20.58
2022-10-23T05:29:57.123Z,17.50
2022-10-23T05:32:30.848Z,13.55
2022-10-23T05:35:01.577Z,16.17
2022-10-23T05:37:33.163Z,14.88
2022-10-23T05:40:13.512Z,20.20
2022-10-23T05:42:45.397Z,11.52
2022-10-23T05:45:19.033Z,12.98
2022-10-23T05:48:16.630Z,20.05
2022-10-23T05:51:12.066Z,14.43
2022-10-23T05:53:53.722Z,12.80
2022-10-23T05:56:38.193Z,10.90
2022-10-23T05:59:11.945Z,12.77
2022-10-23T06:01:53.692Z,14.77
2022-10-23T06:04:36.650Z,13.15
2022-10-23T06:07:35.009Z,13.45
2022-10-23T06:10:09.289Z,10.07
2022-10-23T06:12:43.444Z,13.52
2022-10-23T06:15:17.779Z,12.57
2022-10-23T06:18:05.092Z,12.80
2022-10-23T06:20:39.013Z,14.20
2022-10-23T06:23:14.543Z,13.35
2022-10-23T06:26:17.706Z,10.60
2022-10-23T06:31:41.145Z,16.85
2022-10-23T06:34:12.423Z,12.60
2022-10-23T06:36:42.604Z,10.65
2022-10-23T06:39:41.528Z,11.75
2022-10-23T06:42:24.695Z,9.73
2022-10-23T06:44:59.620Z,13.02
2022-10-23T06:47:51.407Z,11.45
2022-10-23T06:50:50.040Z,10.35
2022-10-23T06:53:26.173Z,9.38
2022-10-23T06:56:07.612Z,11.45
2022-10-23T06:58:43.083Z,12.88
2022-10-23T07:01:17.726Z,9.63
2022-10-23T07:03:49.248Z,11.93
2022-10-23T07:06:24.333Z,9.45
2022-10-23T10:30:12.819Z,21.25
2022-10-23T10:32:51.090Z,21.33
2022-10-23T10:35:31.463Z,37.40
2022-10-23T10:38:05.895Z,46.05
2022-10-23T10:40:49.328Z,41.72
2022-10-23T10:43:22.704Z,29.15
2022-10-23T10:46:08.373Z,32.25
2022-10-23T10:48:41.884Z,28.38
2022-10-23T10:52:01.263Z,42.33
2022-10-23T10:55:09.208Z,36.33
2022-10-23T10:57:55.811Z,36.83
2022-10-23T11:00:28.041Z,35.53
2022-10-23T11:03:27.384Z,28.25
2022-10-23T11:08:29.567Z,31.63
2022-10-23T11:11:02.080Z,30.38
2022-10-23T11:13:38.938Z,23.53
2022-10-23T11:16:26.412Z,27.20
2022-10-23T11:19:19.798Z,22.67
2022-10-23T11:22:12.471Z,23.48
2022-10-23T11:24:54.551Z,24.25
2022-10-23T11:27:34.203Z,25.58
2022-10-23T11:30:20.992Z,20.13
2022-10-23T11:32:53.896Z,20.88
2022-10-23T11:35:55.895Z,25.05
2022-10-23T11:38:26.237Z,21.88
2022-10-23T11:41:01.699Z,19.85
2022-10-23T11:44:02.534Z,26.10
2022-10-23T11:46:36.632Z,19.20
2022-10-23T11:49:07.504Z,21.23
2022-10-23T11:51:40.739Z,20.35
2022-10-23T11:54:16.537Z,20.17
2022-10-23T11:57:13.989Z,20.92
2022-10-23T11:59:47.182Z,22.70
2022-10-23T12:02:40.387Z,26.13
2022-10-23T12:05:30.827Z,30.63
2022-10-23T12:08:03.933Z,27.27
2022-10-23T12:10:51.989Z,24.08
2022-10-23T12:13:39.896Z,25.42
2022-10-23T12:16:10.313Z,25.83
2022-10-23T12:18:54.167Z,24.33
2022-10-23T12:21:29.647Z,22.55
2022-10-23T12:24:11.225Z,27.95
2022-10-23T12:26:51.976Z,30.73
2022-10-23T12:29:57.396Z,25.50
2022-10-23T12:32:40.463Z,24.45
2022-10-23T12:35:19.611Z,20.85
2022-10-23T12:37:56.283Z,20.83
2022-10-23T12:40:31.055Z,27.45
2022-10-23T12:43:02.095Z,19.98
2022-10-23T12:45:38.432Z,28.55
2022-10-23T12:48:08.479Z,21.75
2022-10-23T12:50:38.612Z,26.27
2022-10-23T12:53:12.013Z,20.85
2022-10-23T12:58:38.542Z,21.10
2022-10-23T13:01:09.183Z,17.63
2022-10-23T13:03:39.319Z,19.17
2022-10-23T13:06:11.076Z,21.45
2022-10-23T13:08:48.809Z,24.27
2022-10-23T13:11:42.967Z,19.35
2022-10-23T13:14:25.839Z,20.70
2022-10-23T13:17:05.244Z,19.05
2022-10-23T13:19:35.613Z,19.13
2022-10-23T13:22:06.953Z,23.75
2022-10-23T13:24:36.966Z,20.98
2022-10-23T13:27:28.269Z,16.30
2022-10-23T13:29:58.346Z,19.13
2022-10-23T13:32:30.851Z,16.08
2022-10-23T13:35:20.858Z,17.30
2022-10-23T13:37:52.364Z,20.95
2022-10-23T13:40:24.970Z,17.13
2022-10-23T13:42:55.788Z,17.80
2022-10-23T13:45:28.280Z,19.52
2022-10-23T13:47:59.112Z,16.65
2022-10-23T13:50:29.308Z,18.63
2022-10-23T13:52:59.590Z,17.15
2022-10-23T13:55:29.592Z,16.65
2022-10-23T13:57:59.520Z,15.60
2022-10-23T14:00:29.636Z,19.63
2022-10-23T14:02:59.711Z,16.10
2022-10-23T14:05:30.435Z,17.92
2022-10-23T14:08:00.518Z,18.40
2022-10-23T14:10:30.975Z,13.88
2022-10-23T14:13:00.963Z,16.33
2022-10-23T14:15:31.019Z,15.10
2022-10-23T14:18:04.625Z,20.33
2022-10-23T14:20:39.471Z,16.92
2022-10-23T14:23:09.508Z,15.02
2022-10-23T14:25:39.598Z,15.88
2022-10-23T14:28:09.604Z,15.27
2022-10-23T14:30:39.836Z,16.48
2022-10-23T14:33:09.766Z,16.88
2022-10-23T14:35:44.526Z,14.35
2022-10-23T14:38:14.742Z,14.95
2022-10-23T14:40:44.785Z,15.98
2022-10-23T14:43:14.862Z,14.95
2022-10-23T14:45:45.599Z,14.57
2022-10-23T14:48:15.847Z,12.80
2022-10-23T14:50:47.828Z,14.35
2022-10-23T14:53:17.879Z,16.98
2022-10-23T14:55:48.354Z,14.43
2022-10-23T14:58:18.419Z,12.45
2022-10-23T15:00:48.907Z,11.55
2022-10-23T15:03:19.723Z,13.90
2022-10-23T15:05:49.703Z,15.82
2022-10-23T15:08:19.918Z,14.07
2022-10-23T15:10:50.529Z,15.40
2022-10-23T15:13:20.588Z,12.73
2022-10-23T15:15:50.704Z,16.27
2022-10-23T15:18:22.680Z,13.45
2022-10-23T15:20:56.212Z,17.65
2022-10-23T15:23:26.349Z,16.25
2022-10-23T15:26:03.133Z,15.10
2022-10-23T15:28:33.620Z,17.92
2022-10-23T15:31:04.764Z,17.30
2022-10-23T15:33:35.265Z,17.27
2022-10-23T15:36:05.456Z,15.05
2022-10-23T15:38:35.446Z,15.38
2022-10-23T15:41:14.888Z,15.23
2022-10-23T15:43:45.100Z,14.80
2022-10-23T15:46:15.325Z,13.85
2022-10-23T15:48:45.638Z,15.45
2022-10-23T15:51:15.868Z,16.02
2022-10-23T15:53:46.010Z,20.85
2022-10-23T15:56:16.853Z,19.55
2022-10-23T15:58:47.509Z,23.75
2022-10-23T16:01:18.450Z,18.83
2022-10-23T16:03:49.177Z,21.88
2022-10-23T16:06:19.654Z,27.75
2022-10-23T16:08:49.943Z,26.77
2022-10-23T16:11:28.510Z,21.30
2022-10-23T16:13:59.332Z,20.75
2022-10-23T16:16:29.861Z,18.95
2022-10-23T16:19:04.090Z,22.25
2022-10-23T16:21:36.882Z,27.02
2022-10-23T16:24:08.222Z,29.63
2022-10-23T16:26:38.449Z,26.40
2022-10-23T16:29:09.691Z,26.92
2022-10-23T16:31:39.862Z,25.27
2022-10-23T16:34:09.937Z,21.23
2022-10-23T16:36:40.192Z,22.63
2022-10-23T16:39:30.858Z,21.63
2022-10-23T16:42:35.916Z,20.70
2022-10-23T16:45:13.054Z,31.13
2022-10-23T16:47:43.118Z,26.92
2022-10-23T16:50:13.225Z,24.08
2022-10-23T16:52:43.964Z,20.80
2022-10-23T16:55:14.779Z,20.60
2022-10-23T16:57:44.815Z,23.33
2022-10-23T17:00:15.175Z,16.17
2022-10-23T17:02:46.217Z,17.83
2022-10-23T17:05:16.924Z,22.42
2022-10-23T17:07:47.633Z,17.20
2022-10-23T17:10:18.103Z,19.00
2022-10-23T17:12:48.364Z,17.67
2022-10-23T17:15:19.376Z,21.15
2022-10-23T17:17:50.225Z,18.55
2022-10-23T17:20:20.303Z,17.52
2022-10-23T17:22:50.364Z,18.30
2022-10-23T17:25:20.562Z,18.58
2022-10-23T17:27:50.532Z,25.20
2022-10-23T17:30:20.673Z,19.15
2022-10-23T17:32:50.778Z,23.65
2022-10-23T17:35:20.879Z,25.20
2022-10-23T17:37:51.652Z,19.30
2022-10-23T17:40:24.880Z,21.83
2022-10-23T17:42:55.197Z,24.08
2022-10-23T17:45:25.182Z,22.92
2022-10-23T17:47:55.366Z,22.33
2022-10-23T17:50:25.262Z,20.90
2022-10-23T17:52:55.220Z,25.70
2022-10-23T17:55:25.145Z,26.80
2022-10-23T17:57:55.154Z,17.17
2022-10-23T18:00:25.265Z,20.45
2022-10-23T18:02:55.114Z,21.02
2022-10-23T18:05:25.011Z,20.38
2022-10-23T18:07:56.445Z,20.65
2022-10-23T18:10:26.434Z,21.25
2022-10-23T18:12:56.337Z,23.15
2022-10-23T18:15:26.334Z,18.90
2022-10-23T18:17:56.518Z,20.17
2022-10-23T18:20:26.872Z,23.02
2022-10-23T18:22:56.980Z,22.95
2022-10-23T18:25:26.917Z,20.05
2022-10-23T18:28:01.681Z,23.30
2022-10-23T18:30:32.811Z,19.77
2022-10-23T18:33:05.238Z,21.42
2022-10-23T18:35:41.199Z,21.23
2022-10-23T18:38:11.181Z,20.33
2022-10-23T18:40:41.455Z,16.95
2022-10-23T18:43:15.050Z,19.45
2022-10-23T18:45:49.902Z,19.67
2022-10-23T18:48:19.936Z,17.67
2022-10-23T18:50:49.956Z,22.13
2022-10-23T18:53:19.972Z,19.08
2022-10-23T18:55:53.068Z,17.42
2022-10-23T18:58:23.098Z,19.17
2022-10-23T19:00:53.020Z,16.58
2022-10-23T19:03:23.192Z,16.10
2022-10-23T19:05:53.177Z,19.48
2022-10-23T19:08:23.227Z,19.55
2022-10-23T19:10:53.524Z,15.55
2022-10-23T19:13:23.601Z,15.63
2022-10-23T19:15:53.631Z,19.48
2022-10-23T19:18:23.558Z,20.83
2022-10-23T19:20:53.539Z,18.05
2022-10-23T19:23:23.521Z,20.27
2022-10-23T19:25:53.455Z,17.63
2022-10-23T19:28:23.599Z,20.48
2022-10-23T19:30:53.581Z,17.50
2022-10-23T19:33:23.482Z,21.20
2022-10-23T19:35:53.424Z,18.90
2022-10-23T19:38:23.333Z,21.20
2022-10-23T19:40:53.304Z,19.17
2022-10-23T19:43:23.241Z,19.85
2022-10-23T19:45:53.213Z,17.40
2022-10-23T19:48:23.320Z,19.45
2022-10-23T19:50:53.218Z,23.10
2022-10-23T19:53:23.610Z,16.83
2022-10-23T19:56:02.248Z,16.75
2022-10-23T19:58:32.276Z,19.65
2022-10-23T20:01:15.586Z,16.98
2022-10-23T20:03:49.970Z,23.85
2022-10-23T20:06:25.219Z,14.45
2022-10-23T20:08:55.364Z,17.20
2022-10-23T20:11:34.048Z,17.75
2022-10-23T20:14:04.025Z,16.45
2022-10-23T20:16:38.389Z,16.45
2022-10-23T20:19:11.365Z,15.60
2022-10-23T20:21:42.901Z,15.90
2022-10-23T20:24:13.496Z,21.02
2022-10-23T20:26:44.481Z,15.68
2022-10-23T20:29:14.642Z,17.00
2022-10-23T20:31:44.862Z,18.45
2022-10-23T20:34:14.826Z,17.95
2022-10-23T20:36:47.433Z,15.68
2022-10-23T20:39:22.829Z,19.52
2022-10-23T20:41:52.791Z,18.65
2022-10-23T20:44:22.885Z,18.13
2022-10-23T20:46:53.022Z,17.90
2022-10-23T20:49:23.154Z,16.15
2022-10-23T20:51:56.522Z,14.57
2022-10-23T20:56:56.239Z,16.30
2022-10-23T20:59:26.263Z,15.70
2022-10-23T21:01:57.528Z,16.75
2022-10-23T21:04:28.858Z,15.73
2022-10-23T21:07:14.350Z,14.50
2022-10-23T21:09:44.443Z,16.38
2022-10-23T21:12:14.461Z,13.98
2022-10-23T21:14:44.487Z,14.65
2022-10-23T21:17:18.159Z,15.52
2022-10-23T21:19:48.151Z,16.30
2022-10-23T21:22:18.056Z,14.05
2022-10-23T21:24:48.133Z,15.82
2022-10-23T21:27:18.396Z,16.13
2022-10-23T21:29:48.318Z,14.00
2022-10-23T21:32:18.334Z,13.13
2022-10-23T21:34:48.328Z,12.57
2022-10-23T21:37:18.241Z,12.80
2022-10-23T21:39:48.238Z,12.60
2022-10-23T21:42:18.436Z,16.08
2022-10-23T21:44:48.429Z,14.43
2022-10-23T21:47:20.482Z,13.52
2022-10-23T21:49:50.413Z,14.93
2022-10-23T21:52:22.144Z,15.07
2022-10-23T21:54:55.558Z,17.13
2022-10-23T21:57:25.468Z,13.68
2022-10-23T21:59:56.319Z,14.35
2022-10-23T22:02:26.473Z,15.30
2022-10-23T22:04:56.563Z,15.98
2022-10-23T22:07:26.536Z,13.93
2022-10-23T22:09:56.496Z,12.43
2022-10-23T22:12:26.598Z,12.80
2022-10-23T22:14:56.569Z,12.68
2022-10-23T22:17:26.533Z,14.90
2022-10-23T22:19:56.566Z,12.90
2022-10-23T22:22:26.410Z,11.73
2022-10-23T22:24:56.575Z,15.25
2022-10-23T22:27:26.682Z,14.32
2022-10-23T22:29:56.928Z,14.13
2022-10-23T22:32:27.098Z,11.35
2022-10-23T22:34:57.273Z,12.70
2022-10-23T22:37:27.303Z,13.75
2022-10-23T22:39:57.381Z,12.90
2022-10-23T22:42:27.491Z,12.88
2022-10-23T22:44:57.561Z,11.75
2022-10-23T22:47:27.664Z,15.13
2022-10-23T22:49:57.525Z,13.35
2022-10-23T22:52:28.386Z,10.45
2022-10-23T22:54:58.478Z,12.20
2022-10-23T22:57:28.722Z,14.15
2022-10-23T22:59:58.853Z,10.60
2022-10-23T23:02:28.940Z,12.25
2022-10-23T23:04:58.837Z,9.52
2022-10-23T23:07:29.771Z,14.57
2022-10-23T23:09:59.748Z,16.15
2022-10-23T23:12:29.695Z,12.82
2022-10-23T23:15:01.460Z,12.15
2022-10-23T23:17:31.859Z,13.15
2022-10-23T23:20:01.784Z,10.00
2022-10-23T23:22:31.725Z,13.35
2022-10-23T23:25:01.663Z,11.15
2022-10-23T23:27:31.670Z,10.93
2022-10-23T23:30:01.785Z,10.68
2022-10-23T23:32:31.762Z,16.35
2022-10-23T23:35:02.168Z,12.43
2022-10-23T23:37:32.102Z,13.45
2022-10-23T23:40:02.148Z,11.65
2022-10-23T23:42:32.395Z,11.57
2022-10-23T23:45:10.229Z,12.55
2022-10-23T23:47:44.899Z,14.82
2022-10-23T23:50:15.293Z,14.60
2022-10-23T23:52:45.715Z,18.10
2022-10-23T23:55:15.849Z,11.77
2022-10-23T23:57:46.249Z,11.25
